createdAt,value
2019-04-22T00:02:22.585Z,7.03
2019-04-22T00:05:04.704Z,6.10
2019-04-22T00:08:00.357Z,6.23
2019-04-22T00:10:33.186Z,7.77
2019-04-22T00:13:06.459Z,6.07
2019-04-22T00:15:39.476Z,5.17
2019-04-22T00:18:22.393Z,6.00
2019-04-22T00:20:51.818Z,7.80
2019-04-22T00:23:20.381Z,6.70
2019-04-22T00:25:55.886Z,5.80
2019-04-22T00:28:30.321Z,8.77
2019-04-22T00:31:10.301Z,5.57
2019-04-22T00:33:39.198Z,5.43
2019-04-22T00:36:16.719Z,5.53
2019-04-22T00:38:44.106Z,5.40
2019-04-22T00:41:23.567Z,6.40
2019-04-22T00:43:56.775Z,5.67
2019-04-22T00:46:25.184Z,7.27
2019-04-22T00:49:52.796Z,6.23
2019-04-22T00:51:47.494Z,6.50
2019-04-22T00:54:06.037Z,7.27
2019-04-22T00:56:40.897Z,5.73
2019-04-22T00:59:17.231Z,8.37
2019-04-22T01:01:54.299Z,6.70
2019-04-22T01:04:27.993Z,11.20
2019-04-22T01:06:57.486Z,9.97
2019-04-22T01:09:33.018Z,5.57
2019-04-22T01:12:12.093Z,6.03
2019-04-22T01:14:44.352Z,5.37
2019-04-22T01:17:11.668Z,5.13
2019-04-22T01:19:52.309Z,8.93
2019-04-22T01:22:17.591Z,5.50
2019-04-22T01:24:50.092Z,6.10
2019-04-22T01:27:20.680Z,6.33
2019-04-22T01:29:51.779Z,5.23
2019-04-22T01:32:17.566Z,6.27
2019-04-22T01:35:03.410Z,6.97
2019-04-22T01:37:43.312Z,6.30
2019-04-22T01:40:25.234Z,8.10
2019-04-22T01:42:56.016Z,9.90
2019-04-22T01:45:29.529Z,6.30
2019-04-22T01:48:02.540Z,6.47
2019-04-22T01:50:36.843Z,7.03
2019-04-22T01:53:13.255Z,6.47
2019-04-22T01:55:55.520Z,7.00
2019-04-22T01:58:21.835Z,9.63
2019-04-22T02:01:16.005Z,9.00
2019-04-22T02:03:41.434Z,6.73
2019-04-22T02:06:05.597Z,5.73
2019-04-22T02:08:44.874Z,4.90
2019-04-22T02:11:17.696Z,6.53
2019-04-22T02:13:52.709Z,8.20
2019-04-22T02:16:31.930Z,6.17
2019-04-22T02:19:01.197Z,6.20
2019-04-22T02:21:30.193Z,6.30
2019-04-22T02:24:15.659Z,7.37
2019-04-22T02:26:49.901Z,5.90
2019-04-22T02:29:26.337Z,7.53
2019-04-22T02:37:12.957Z,6.10
2019-04-22T02:39:52.849Z,7.07
2019-04-22T02:42:14.091Z,6.80
2019-04-22T02:44:55.934Z,8.70
2019-04-22T02:47:33.558Z,5.60
2019-04-22T02:52:32.469Z,8.93
2019-04-22T03:00:12.215Z,9.13
2019-04-22T03:02:50.618Z,5.80
2019-04-22T03:05:19.598Z,6.00
2019-04-22T03:07:50.659Z,5.57
2019-04-22T03:10:29.430Z,7.77
2019-04-22T03:12:54.015Z,5.67
2019-04-22T03:15:25.273Z,6.67
2019-04-22T03:18:01.238Z,6.03
2019-04-22T03:20:50.136Z,7.73
2019-04-22T03:23:16.878Z,6.23
2019-04-22T03:28:08.729Z,6.40
2019-04-22T03:30:56.704Z,6.23
2019-04-22T03:33:29.433Z,9.10
2019-04-22T03:36:18.663Z,7.57
2019-04-22T03:38:50.988Z,6.63
2019-04-22T03:41:05.639Z,7.33
2019-04-22T03:43:35.107Z,7.17
2019-04-22T03:46:02.083Z,6.07
2019-04-22T03:48:37.923Z,5.67
2019-04-22T03:51:20.173Z,8.60
2019-04-22T03:53:54.638Z,7.27
2019-04-22T03:56:36.562Z,6.30
2019-04-22T03:58:58.745Z,5.23
2019-04-22T04:01:38.128Z,6.93
2019-04-22T04:04:09.369Z,7.20
2019-04-22T04:06:39.956Z,12.77
2019-04-22T04:09:08.986Z,6.50
2019-04-22T04:11:52.190Z,7.60
2019-04-22T04:17:06.175Z,5.97
2019-04-22T04:19:23.351Z,7.37
2019-04-22T04:21:50.460Z,6.20
2019-04-22T04:29:57.322Z,7.63
2019-04-22T04:32:19.921Z,6.23
2019-04-22T04:34:58.510Z,8.40
2019-04-22T04:45:11.415Z,7.17
2019-04-22T04:47:39.119Z,6.87
2019-04-22T04:49:57.422Z,6.67
2019-04-22T04:52:39.749Z,6.80
2019-04-22T04:55:14.422Z,8.03
2019-04-22T05:00:31.961Z,6.73
2019-04-22T05:10:26.407Z,8.33
2019-04-22T05:12:56.824Z,8.63
2019-04-22T05:17:57.722Z,8.00
2019-04-22T05:22:51.362Z,8.13
2019-04-22T05:28:04.033Z,7.77
2019-04-22T05:30:46.077Z,10.10
2019-04-22T05:33:26.257Z,7.37
2019-04-22T05:35:53.574Z,8.47
2019-04-22T05:38:28.485Z,7.30
2019-04-22T05:40:56.388Z,6.53
2019-04-22T05:43:27.266Z,7.50
2019-04-22T05:46:05.750Z,7.43
2019-04-22T05:48:41.026Z,7.33
2019-04-22T05:51:09.696Z,7.20
2019-04-22T05:53:47.765Z,7.63
2019-04-22T05:56:28.119Z,9.03
2019-04-22T05:58:52.696Z,6.27
2019-04-22T06:01:38.139Z,7.00
2019-04-22T06:04:03.163Z,8.07
2019-04-22T06:06:40.581Z,7.40
2019-04-22T06:09:08.661Z,7.47
2019-04-22T06:11:33.559Z,9.47
2019-04-22T06:14:19.011Z,6.20
2019-04-22T06:16:53.217Z,7.57
2019-04-22T06:19:38.669Z,8.87
2019-04-22T06:22:01.901Z,6.80
2019-04-22T06:24:29.048Z,6.73
2019-04-22T06:27:11.526Z,6.43
2019-04-22T06:29:39.900Z,7.63
2019-04-22T06:34:43.340Z,7.30
2019-04-22T06:37:20.572Z,7.57
2019-04-22T06:39:51.067Z,6.67
2019-04-22T06:42:33.100Z,9.67
2019-04-22T06:45:07.286Z,7.57
2019-04-22T06:47:53.275Z,10.10
2019-04-22T06:50:16.948Z,7.97
2019-04-22T06:52:52.542Z,7.73
2019-04-22T06:55:27.753Z,7.90
2019-04-22T06:57:59.903Z,9.40
2019-04-22T07:05:43.117Z,7.30
2019-04-22T07:08:45.668Z,6.73
2019-04-22T07:10:47.751Z,9.33
2019-04-22T07:13:23.364Z,7.73
2019-04-22T07:15:57.397Z,7.07
2019-04-22T07:21:01.382Z,8.33
2019-04-22T07:23:37.433Z,6.67
2019-04-22T07:26:08.624Z,7.97
2019-04-22T07:28:37.526Z,7.57
2019-04-22T07:31:16.178Z,10.77
2019-04-22T07:33:45.468Z,8.63
2019-04-22T07:36:43.343Z,9.27
2019-04-22T07:38:48.628Z,8.47
2019-04-22T07:41:25.203Z,8.20
2019-04-22T07:46:39.036Z,7.70
2019-04-22T07:49:02.106Z,7.63
2019-04-22T07:51:36.782Z,8.37
2019-04-22T07:54:11.157Z,6.83
2019-04-22T07:56:47.001Z,6.30
2019-04-22T07:59:17.113Z,6.43
2019-04-22T08:02:04.678Z,7.17
2019-04-22T08:04:44.900Z,6.53
2019-04-22T08:09:44.544Z,5.80
2019-04-22T08:12:12.859Z,6.07
2019-04-22T08:14:45.501Z,5.97
2019-04-22T08:17:38.812Z,6.20
2019-04-22T08:19:57.769Z,5.83
2019-04-22T08:22:24.109Z,5.53
2019-04-22T08:27:31.459Z,6.33
2019-04-22T08:30:06.451Z,5.90
2019-04-22T08:32:40.910Z,5.87
2019-04-22T08:35:21.333Z,6.27
2019-04-22T08:37:51.212Z,5.27
2019-04-22T08:40:28.810Z,5.47
2019-04-22T08:43:05.571Z,5.00
2019-04-22T08:45:32.124Z,4.40
2019-04-22T08:48:10.327Z,5.27
2019-04-22T08:53:16.115Z,4.10
2019-04-22T08:55:56.739Z,5.03
2019-04-22T08:58:27.341Z,3.40
2019-04-22T09:01:06.499Z,4.13
2019-04-22T09:03:38.255Z,5.20
2019-04-22T09:06:25.123Z,3.60
2019-04-22T09:08:52.122Z,3.93
2019-04-22T09:11:25.239Z,3.27
2019-04-22T09:13:56.072Z,3.53
2019-04-22T09:16:32.068Z,3.47
2019-04-22T09:19:10.876Z,3.07
2019-04-22T09:21:56.404Z,3.37
2019-04-22T09:27:24.857Z,7.03
2019-04-22T09:29:54.012Z,3.20
2019-04-22T09:32:27.246Z,4.30
2019-04-22T09:35:25.121Z,2.80
2019-04-22T09:40:15.277Z,2.90
2019-04-22T09:42:53.286Z,4.00
2019-04-22T09:45:21.575Z,2.80
2019-04-22T09:48:00.873Z,4.67
2019-04-22T09:50:42.092Z,2.47
2019-04-22T09:53:39.148Z,4.53
2019-04-22T09:56:17.824Z,5.20
2019-04-22T09:58:49.440Z,2.67
2019-04-22T10:04:05.369Z,2.70
2019-04-22T10:06:33.315Z,3.23
2019-04-22T10:11:47.049Z,4.33
2019-04-22T10:14:23.862Z,2.60
2019-04-22T10:16:56.524Z,3.37
2019-04-22T10:19:29.963Z,3.13
2019-04-22T10:22:08.649Z,2.37
2019-04-22T10:24:48.133Z,2.60
2019-04-22T10:27:19.031Z,3.43
2019-04-22T10:29:54.256Z,2.70
2019-04-22T10:32:27.927Z,2.70
2019-04-22T10:34:48.605Z,2.70
2019-04-22T10:37:17.061Z,4.27
2019-04-22T10:39:56.603Z,3.67
2019-04-22T10:42:23.039Z,2.83
2019-04-22T10:44:55.467Z,2.90
2019-04-22T10:47:27.974Z,3.33
2019-04-22T10:50:00.645Z,4.13
2019-04-22T10:52:53.180Z,4.00
2019-04-22T10:55:31.887Z,3.60
2019-04-22T10:58:10.777Z,3.30
2019-04-22T11:00:45.391Z,3.37
2019-04-22T11:03:24.745Z,3.30
2019-04-22T11:06:05.558Z,4.67
2019-04-22T11:08:59.818Z,3.80
2019-04-22T11:11:42.420Z,3.07
2019-04-22T11:14:04.448Z,3.13
2019-04-22T11:16:43.635Z,3.53
2019-04-22T11:19:17.423Z,3.17
2019-04-22T11:22:06.877Z,4.87
2019-04-22T11:24:58.957Z,3.83
2019-04-22T11:27:33.161Z,3.30
2019-04-22T11:30:05.843Z,4.30
2019-04-22T11:32:40.558Z,3.33
2019-04-22T11:35:11.960Z,2.77
2019-04-22T11:37:43.555Z,3.40
2019-04-22T11:40:26.426Z,3.70
2019-04-22T11:42:54.383Z,3.10
2019-04-22T11:45:31.281Z,6.07
2019-04-22T11:48:01.627Z,3.17
2019-04-22T11:50:37.634Z,3.27
2019-04-22T11:53:14.485Z,4.73
2019-04-22T11:55:58.366Z,3.57
2019-04-22T11:58:30.754Z,5.37
2019-04-22T12:01:04.817Z,3.87
2019-04-22T12:03:37.970Z,5.13
2019-04-22T12:06:11.502Z,3.93
2019-04-22T12:08:43.707Z,3.40
2019-04-22T12:11:18.553Z,3.60
2019-04-22T12:13:52.046Z,6.57
2019-04-22T12:16:25.339Z,4.07
2019-04-22T12:18:58.467Z,3.90
2019-04-22T12:21:31.093Z,3.70
2019-04-22T12:24:05.426Z,4.23
2019-04-22T12:26:40.128Z,3.77
2019-04-22T12:29:11.230Z,4.73
2019-04-22T12:31:42.271Z,6.87
2019-04-22T12:34:13.383Z,5.07
2019-04-22T12:36:44.897Z,6.23
2019-04-22T12:39:17.715Z,5.87
2019-04-22T12:41:50.034Z,6.33
2019-04-22T12:44:22.158Z,5.20
2019-04-22T12:46:56.438Z,8.57
2019-04-22T12:49:28.092Z,4.40
2019-04-22T12:52:05.187Z,4.77
2019-04-22T12:54:39.339Z,5.53
2019-04-22T12:57:10.722Z,6.10
2019-04-22T12:59:45.711Z,4.47
2019-04-22T13:02:16.762Z,4.43
2019-04-22T13:04:47.925Z,5.90
2019-04-22T13:07:21.548Z,4.10
2019-04-22T13:09:57.167Z,4.57
2019-04-22T13:12:29.078Z,3.77
2019-04-22T13:15:04.721Z,3.50
2019-04-22T13:17:35.813Z,7.20
2019-04-22T13:20:12.547Z,3.93
2019-04-22T13:22:43.044Z,7.43
2019-04-22T13:25:17.623Z,4.03
2019-04-22T13:27:49.185Z,3.43
2019-04-22T13:30:26.503Z,4.77
2019-04-22T13:33:02.933Z,3.43
2019-04-22T13:35:36.270Z,3.63
2019-04-22T13:38:09.167Z,4.83
2019-04-22T13:40:55.863Z,4.30
2019-04-22T13:43:13.294Z,4.93
2019-04-22T13:45:47.817Z,3.50
2019-04-22T13:48:38.789Z,6.87
2019-04-22T13:51:33.810Z,3.60
2019-04-22T13:54:47.122Z,2.93
2019-04-22T13:57:03.377Z,3.37
2019-04-22T13:59:30.261Z,3.33
2019-04-22T14:02:18.861Z,7.57
2019-04-22T14:04:52.676Z,3.20
2019-04-22T14:07:25.136Z,3.33
2019-04-22T14:10:04.342Z,3.00
2019-04-22T14:12:37.286Z,5.33
2019-04-22T14:15:18.237Z,3.20
2019-04-22T14:17:49.430Z,3.67
2019-04-22T14:20:24.084Z,3.30
2019-04-22T14:22:54.812Z,2.70
2019-04-22T14:25:28.544Z,5.17
2019-04-22T14:28:09.207Z,2.77
2019-04-22T14:30:36.947Z,3.53
2019-04-22T14:33:14.058Z,7.77
2019-04-22T14:35:52.220Z,6.60
2019-04-22T14:38:28.196Z,3.57
2019-04-22T14:41:05.872Z,5.83
2019-04-22T14:44:50.782Z,3.03
2019-04-22T14:46:49.327Z,4.27
2019-04-22T14:49:24.174Z,3.90
2019-04-22T14:51:55.038Z,3.93
2019-04-22T14:54:25.583Z,4.33
2019-04-22T14:56:44.532Z,2.93
2019-04-22T14:59:16.843Z,2.63
2019-04-22T15:01:58.045Z,2.40
2019-04-22T15:04:37.216Z,2.60
2019-04-22T15:07:28.844Z,2.47
2019-04-22T15:10:01.943Z,2.63
2019-04-22T15:12:53.114Z,3.50
2019-04-22T15:15:40.475Z,3.27
2019-04-22T15:18:28.331Z,3.87
2019-04-22T15:21:08.965Z,2.53
2019-04-22T15:23:52.896Z,3.53
2019-04-22T15:26:34.642Z,3.00
2019-04-22T15:29:15.600Z,3.37
2019-04-22T15:31:49.371Z,2.07
2019-04-22T15:34:26.167Z,4.03
2019-04-22T15:37:09.232Z,4.30
2019-04-22T15:39:43.589Z,2.23
2019-04-22T15:42:25.766Z,3.17
2019-04-22T15:44:55.979Z,4.03
2019-04-22T15:47:27.144Z,2.27
2019-04-22T15:50:09.989Z,3.37
2019-04-22T15:52:49.411Z,4.90
2019-04-22T15:55:16.450Z,2.43
2019-04-22T15:57:54.038Z,4.63
2019-04-22T16:00:44.587Z,2.20
2019-04-22T16:03:12.338Z,3.63
2019-04-22T16:05:46.190Z,2.70
2019-04-22T16:08:19.443Z,2.60
2019-04-22T16:10:51.732Z,2.63
2019-04-22T16:13:27.327Z,3.17
2019-04-22T16:16:00.681Z,4.80
2019-04-22T16:18:33.100Z,5.70
2019-04-22T16:21:14.332Z,5.67
2019-04-22T16:24:12.285Z,2.23
2019-04-22T16:27:04.554Z,1.90
2019-04-22T16:29:39.293Z,2.17
2019-04-22T16:32:13.569Z,2.57
2019-04-22T16:34:52.432Z,2.47
2019-04-22T16:37:28.518Z,2.90
2019-04-22T16:40:05.060Z,4.00
2019-04-22T16:42:45.881Z,3.17
2019-04-22T16:45:15.828Z,3.00
2019-04-22T16:48:17.931Z,4.43
2019-04-22T16:50:54.984Z,2.27
2019-04-22T16:53:38.949Z,2.93
2019-04-22T16:56:12.981Z,4.13
2019-04-22T16:58:48.606Z,2.93
2019-04-22T17:01:38.785Z,3.47
2019-04-22T17:04:36.694Z,3.23
2019-04-22T17:07:14.259Z,3.33
2019-04-22T17:09:45.903Z,4.20
2019-04-22T17:12:37.840Z,3.30
2019-04-22T17:15:07.957Z,3.00
2019-04-22T17:17:36.192Z,2.90
2019-04-22T17:20:09.163Z,3.37
2019-04-22T17:22:41.791Z,3.20
2019-04-22T17:25:14.083Z,5.63
2019-04-22T17:27:45.638Z,3.30
2019-04-22T17:30:17.338Z,3.83
2019-04-22T17:32:48.467Z,5.60
2019-04-22T17:35:24.112Z,4.27
2019-04-22T17:38:08.833Z,3.20
2019-04-22T17:40:44.890Z,4.07
2019-04-22T17:43:40.648Z,11.77
2019-04-22T17:46:16.206Z,6.93
2019-04-22T17:49:18.843Z,4.70
2019-04-22T17:52:10.425Z,6.60
2019-04-22T17:54:42.127Z,2.90
2019-04-22T17:57:19.273Z,4.70
2019-04-22T17:59:50.568Z,3.23
2019-04-22T18:02:24.652Z,5.93
2019-04-22T18:04:55.105Z,4.67
2019-04-22T18:07:41.384Z,3.77
2019-04-22T18:10:32.350Z,4.73
2019-04-22T18:13:06.991Z,6.23
2019-04-22T18:15:30.661Z,5.70
2019-04-22T18:18:12.376Z,3.43
2019-04-22T18:20:35.305Z,4.13
2019-04-22T18:23:04.271Z,3.47
2019-04-22T18:25:48.416Z,5.57
2019-04-22T18:28:25.185Z,2.60
2019-04-22T18:30:58.701Z,5.80
2019-04-22T18:33:28.691Z,3.50
2019-04-22T18:36:11.525Z,3.93
2019-04-22T18:41:18.195Z,3.70
2019-04-22T18:43:58.839Z,4.50
2019-04-22T18:46:34.380Z,3.30
2019-04-22T18:49:07.299Z,3.33
2019-04-22T18:51:48.147Z,4.07
2019-04-22T18:54:43.480Z,4.27
2019-04-22T18:57:15.535Z,5.03
2019-04-22T18:59:34.588Z,4.97
2019-04-22T19:02:13.591Z,5.57
2019-04-22T19:04:51.763Z,3.13
2019-04-22T19:07:44.293Z,6.27
2019-04-22T19:10:19.043Z,3.53
2019-04-22T19:13:17.472Z,2.93
2019-04-22T19:16:24.601Z,4.20
2019-04-22T19:21:07.956Z,2.90
2019-04-22T19:23:46.560Z,5.23
2019-04-22T19:26:32.492Z,4.37
2019-04-22T19:29:00.327Z,4.53
2019-04-22T19:31:43.789Z,3.73
2019-04-22T19:34:16.717Z,4.10
2019-04-22T19:36:48.517Z,2.50
2019-04-22T19:39:19.255Z,4.80
2019-04-22T19:42:03.629Z,3.27
2019-04-22T19:44:33.290Z,2.80
2019-04-22T19:47:26.857Z,7.53
2019-04-22T19:49:52.351Z,3.70
2019-04-22T19:52:24.391Z,3.07
2019-04-22T19:54:55.037Z,4.30
2019-04-22T19:57:34.469Z,5.60
2019-04-22T20:00:11.074Z,3.37
2019-04-22T20:03:16.078Z,4.43
2019-04-22T20:06:16.163Z,4.50
2019-04-22T20:08:59.707Z,4.27
2019-04-22T20:11:41.865Z,5.73
2019-04-22T20:14:16.729Z,8.80
2019-04-22T20:16:51.496Z,3.73
2019-04-22T20:22:12.893Z,3.50
2019-04-22T20:24:34.021Z,5.37
2019-04-22T20:27:22.529Z,4.87
2019-04-22T20:29:58.136Z,4.43
2019-04-22T20:32:37.654Z,4.30
2019-04-22T20:35:15.774Z,4.20
2019-04-22T20:37:54.874Z,4.30
2019-04-22T20:40:25.293Z,4.47
2019-04-22T20:43:13.625Z,4.40
2019-04-22T20:45:46.451Z,6.97
2019-04-22T20:48:12.996Z,7.07
2019-04-22T20:50:58.124Z,4.90
2019-04-22T20:53:45.798Z,6.27
2019-04-22T20:56:14.565Z,4.57
2019-04-22T20:58:45.223Z,5.03
2019-04-22T21:01:22.357Z,4.50
2019-04-22T21:03:44.041Z,4.50
2019-04-22T21:06:30.566Z,4.90
2019-04-22T21:09:07.480Z,5.97
2019-04-22T21:11:40.325Z,5.27
2019-04-22T21:14:12.259Z,7.37
2019-04-22T21:16:54.742Z,5.43
2019-04-22T21:19:33.573Z,5.20
2019-04-22T21:21:59.534Z,8.47
2019-04-22T21:24:29.696Z,8.00
2019-04-22T21:27:16.783Z,7.97
2019-04-22T21:29:43.327Z,7.13
2019-04-22T21:32:25.208Z,8.00
2019-04-22T21:35:06.659Z,7.27
2019-04-22T21:37:57.971Z,9.17
2019-04-22T21:40:15.033Z,8.97
2019-04-22T21:42:55.447Z,10.17
2019-04-22T21:45:20.804Z,14.80
2019-04-22T21:48:04.877Z,9.63
2019-04-22T21:53:19.728Z,10.60
2019-04-22T21:55:43.771Z,8.17
2019-04-22T21:58:24.562Z,8.43
2019-04-22T22:01:28.249Z,11.57
2019-04-22T22:03:57.286Z,12.47
2019-04-22T22:06:15.118Z,14.27
2019-04-22T22:09:02.834Z,8.83
2019-04-22T22:11:35.793Z,10.40
2019-04-22T22:14:12.369Z,5.90
2019-04-22T22:16:38.412Z,6.03
2019-04-22T22:19:30.164Z,8.43
2019-04-22T22:22:07.854Z,5.13
2019-04-22T22:24:41.388Z,10.57
2019-04-22T22:27:10.389Z,6.20
2019-04-22T22:29:57.175Z,7.17
2019-04-22T22:32:16.819Z,9.67
2019-04-22T22:34:53.436Z,6.47
2019-04-22T22:37:22.112Z,6.80
2019-04-22T22:39:54.382Z,7.80
2019-04-22T22:42:22.453Z,5.97
2019-04-22T22:45:02.659Z,9.93
2019-04-22T22:47:40.924Z,9.53
2019-04-22T22:50:15.917Z,7.33
2019-04-22T22:53:00.930Z,5.60
2019-04-22T22:55:24.937Z,5.53
2019-04-22T22:57:58.393Z,8.17
2019-04-22T23:00:31.853Z,5.77
2019-04-22T23:03:36.358Z,8.87
2019-04-22T23:05:46.091Z,5.27
2019-04-22T23:08:20.047Z,9.03
2019-04-22T23:10:55.587Z,9.57
2019-04-22T23:13:25.652Z,7.70
2019-04-22T23:15:50.854Z,6.83
2019-04-22T23:18:07.816Z,6.27
2019-04-22T23:20:47.252Z,6.63
2019-04-22T23:23:36.125Z,6.10
2019-04-22T23:26:07.560Z,7.23
2019-04-22T23:28:44.584Z,7.57
2019-04-22T23:31:23.647Z,6.00
2019-04-22T23:34:06.183Z,6.03
2019-04-22T23:37:00.152Z,8.70
2019-04-22T23:39:42.024Z,8.63
2019-04-22T23:42:19.366Z,6.33
2019-04-22T23:44:42.289Z,4.90
2019-04-22T23:47:16.430Z,5.83
2019-04-22T23:49:57.865Z,6.63
2019-04-22T23:52:29.073Z,6.93
2019-04-22T23:55:13.343Z,5.17
2019-04-22T23:57:38.990Z,6.97
